Time;durP1;ratioP1;P1;durP2;ratioP2;P2;SDS_P1;SDS_P2;PMS_P1;PMS_P2;Temp;Humidity;BMP_temperature;BMP_pressure;BME280_temperature;BME280_humidity;BME280_pressure;Samples;Min_cycle;Max_cycle;Signal;HPM_P1;HPM_P2
2022/10/29 00:00:36;;;;;;;17.90;6.18;;;13.40;99.90;;;;;;4977740;28;20033;-85
2022/10/29 00:03:02;;;;;;;18.67;5.85;;;13.40;99.90;;;;;;4988559;28;20049;-85
2022/10/29 00:05:27;;;;;;;21.98;6.80;;;13.40;99.90;;;;;;4962017;28;20049;-85
2022/10/29 00:07:53;;;;;;;22.35;6.45;;;13.40;99.90;;;;;;4988619;28;20056;-85
2022/10/29 00:10:19;;;;;;;20.85;5.88;;;13.30;99.90;;;;;;4971900;28;20080;-85
2022/10/29 00:12:44;;;;;;;19.98;6.43;;;13.40;99.90;;;;;;4973540;28;20563;-85
2022/10/29 00:15:10;;;;;;;25.30;6.20;;;13.40;99.90;;;;;;4950275;28;20049;-85
2022/10/29 00:17:36;;;;;;;23.55;6.07;;;13.40;99.90;;;;;;4955769;28;20502;-85
2022/10/29 00:20:02;;;;;;;23.52;6.28;;;13.40;99.90;;;;;;4972711;28;20065;-85
2022/10/29 00:22:28;;;;;;;20.85;6.05;;;13.40;99.90;;;;;;4982966;28;20094;-85
2022/10/29 00:24:53;;;;;;;25.77;6.93;;;13.50;99.90;;;;;;4977135;28;20037;-84
2022/10/29 00:27:19;;;;;;;20.02;6.63;;;13.40;99.90;;;;;;4979761;28;20092;-85
2022/10/29 00:29:45;;;;;;;21.63;6.50;;;13.40;99.90;;;;;;4979843;28;20045;-85
2022/10/29 00:32:10;;;;;;;23.75;6.35;;;13.30;99.90;;;;;;4970599;28;20038;-85
2022/10/29 00:34:36;;;;;;;21.85;6.50;;;13.30;99.90;;;;;;4974048;28;20038;-85
2022/10/29 00:37:05;;;;;;;23.45;6.60;;;13.30;99.90;;;;;;4972467;28;20537;-85
2022/10/29 00:39:32;;;;;;;21.10;5.95;;;13.20;99.90;;;;;;4984364;28;20053;-85
2022/10/29 00:41:59;;;;;;;23.75;6.60;;;13.20;99.90;;;;;;4974075;28;20045;-85
2022/10/29 00:44:28;;;;;;;20.63;6.65;;;13.20;99.90;;;;;;4989066;28;20495;-85
2022/10/29 00:47:11;;;;;;;25.15;6.90;;;13.20;99.90;;;;;;5005059;28;20045;-85
2022/10/29 00:49:40;;;;;;;20.83;6.50;;;13.20;99.90;;;;;;5006890;28;20533;-85
2022/10/29 00:52:08;;;;;;;20.50;6.05;;;13.10;99.90;;;;;;4985727;28;20038;-85
2022/10/29 00:54:38;;;;;;;19.00;6.55;;;13.10;99.90;;;;;;5000174;28;20041;-85
2022/10/29 00:57:26;;;;;;;16.33;5.90;;;13.10;99.90;;;;;;4991300;28;20045;-85
2022/10/29 00:59:53;;;;;;;20.30;6.18;;;13.00;99.90;;;;;;5008158;28;20045;-85
2022/10/29 01:02:20;;;;;;;22.15;6.18;;;13.00;99.90;;;;;;4988187;28;20193;-85
2022/10/29 01:04:46;;;;;;;22.40;6.63;;;13.00;99.90;;;;;;4973488;28;20726;-85
2022/10/29 01:07:12;;;;;;;17.67;6.07;;;13.00;99.90;;;;;;4976797;28;20111;-84
2022/10/29 01:09:38;;;;;;;21.13;6.28;;;13.00;99.90;;;;;;4958043;28;20219;-85
2022/10/29 01:12:32;;;;;;;22.50;6.32;;;13.00;99.90;;;;;;4989281;28;20092;-85
2022/10/29 01:15:11;;;;;;;18.88;6.45;;;12.90;99.90;;;;;;4981061;28;20057;-85
2022/10/29 01:17:48;;;;;;;22.08;6.13;;;12.90;99.90;;;;;;4988302;28;20445;-85
2022/10/29 01:20:45;;;;;;;28.58;7.47;;;12.90;99.90;;;;;;4989822;28;20042;-84
2022/10/29 01:23:44;;;;;;;25.92;7.15;;;12.90;99.90;;;;;;4989265;28;20042;-85
2022/10/29 01:26:57;;;;;;;25.48;6.32;;;12.90;99.90;;;;;;4988539;28;20046;-85
2022/10/29 01:29:34;;;;;;;;;;;12.90;99.90;;;;;;4983051;28;20129;-84
2022/10/29 01:32:09;;;;;;;26.23;6.93;;;12.90;99.90;;;;;;4991578;28;19971;-85
2022/10/29 01:34:56;;;;;;;19.92;7.07;;;12.90;99.90;;;;;;4987208;28;20166;-85
2022/10/29 01:37:28;;;;;;;24.63;7.57;;;12.90;99.90;;;;;;4990742;28;20099;-85
2022/10/29 01:40:06;;;;;;;31.10;8.50;;;13.00;99.90;;;;;;4993723;28;20502;-85
2022/10/29 01:43:10;;;;;;;21.85;7.25;;;13.00;99.90;;;;;;4990861;28;20045;-85
2022/10/29 01:45:42;;;;;;;20.92;7.95;;;13.00;99.90;;;;;;4968410;28;20152;-84
2022/10/29 01:48:13;;;;;;;28.27;7.88;;;13.00;99.90;;;;;;5007226;28;20050;-85
2022/10/29 01:50:43;;;;;;;18.45;7.55;;;13.20;99.90;;;;;;4990496;28;20042;-84
2022/10/29 01:53:09;;;;;;;19.70;8.55;;;13.20;99.90;;;;;;4991613;28;20037;-85
2022/10/29 01:55:35;;;;;;;21.08;8.70;;;13.10;99.90;;;;;;4978116;28;20038;-85
2022/10/29 01:58:05;;;;;;;19.42;7.97;;;13.10;99.90;;;;;;4976312;28;20123;-85
2022/10/29 02:00:44;;;;;;;19.25;8.32;;;13.10;99.90;;;;;;4979767;28;20108;-85
2022/10/29 02:03:40;;;;;;;31.52;8.70;;;13.10;99.90;;;;;;4991274;28;20053;-85
2022/10/29 02:06:19;;;;;;;71.40;10.43;;;13.10;99.90;;;;;;4984546;28;20120;-85
2022/10/29 02:09:30;;;;;;;49.30;9.13;;;13.10;99.90;;;;;;4992602;28;20446;-84
2022/10/29 02:12:23;;;;;;;30.45;8.18;;;13.10;99.90;;;;;;4988057;28;20038;-84
2022/10/29 02:14:55;;;;;;;43.03;8.18;;;13.10;99.90;;;;;;5008530;28;20542;-85
2022/10/29 02:17:20;;;;;;;48.95;8.88;;;13.10;99.90;;;;;;4987886;28;20046;-85
2022/10/29 02:19:46;;;;;;;135.77;10.38;;;13.10;99.90;;;;;;4993491;28;20080;-85
2022/10/29 02:22:12;;;;;;;22.42;7.80;;;12.10;99.90;;;;;;4989199;28;20050;-85
2022/10/29 02:24:37;;;;;;;16.52;7.18;;;13.00;99.90;;;;;;4985575;28;20478;-85
2022/10/29 02:27:03;;;;;;;15.57;6.60;;;13.10;99.90;;;;;;4975442;28;20049;-85
2022/10/29 02:29:28;;;;;;;17.20;7.22;;;13.00;99.90;;;;;;5008481;28;20079;-85
2022/10/29 02:31:54;;;;;;;25.77;6.72;;;13.10;99.90;;;;;;4978934;28;20041;-85
2022/10/29 02:34:20;;;;;;;25.55;6.78;;;13.10;99.90;;;;;;4988930;28;20038;-85
2022/10/29 02:36:45;;;;;;;28.40;6.68;;;13.00;99.90;;;;;;4972587;28;20049;-85
2022/10/29 02:39:11;;;;;;;31.33;7.20;;;13.00;99.90;;;;;;5007048;28;20069;-85
2022/10/29 02:41:37;;;;;;;59.28;7.60;;;13.00;99.90;;;;;;4982774;28;20041;-84
2022/10/29 02:44:02;;;;;;;23.05;6.32;;;13.00;99.90;;;;;;4964943;28;20060;-84
2022/10/29 02:46:29;;;;;;;13.63;6.22;;;13.00;99.90;;;;;;4982441;28;20042;-84
2022/10/29 02:48:54;;;;;;;44.65;6.53;;;13.00;99.90;;;;;;4953869;28;20462;-85
2022/10/29 02:51:20;;;;;;;26.38;6.65;;;13.10;99.90;;;;;;4999261;28;20038;-85
2022/10/29 02:53:46;;;;;;;22.38;6.05;;;13.00;99.90;;;;;;4976413;28;20045;-84
2022/10/29 02:56:11;;;;;;;27.00;6.55;;;13.00;99.90;;;;;;4989811;28;20038;-85
2022/10/29 02:58:37;;;;;;;36.22;6.45;;;13.10;99.90;;;;;;4988663;28;20132;-84
2022/10/29 03:01:03;;;;;;;36.65;7.22;;;13.00;99.90;;;;;;5003704;28;20399;-84
2022/10/29 03:03:29;;;;;;;21.17;6.22;;;13.00;99.90;;;;;;4985375;28;20082;-84
2022/10/29 03:05:55;;;;;;;88.28;9.48;;;12.90;99.90;;;;;;4971418;28;20077;-84
2022/10/29 03:08:21;;;;;;;63.25;7.15;;;12.90;99.90;;;;;;4984532;28;20097;-84
2022/10/29 03:10:47;;;;;;;17.73;5.65;;;12.90;99.90;;;;;;4989803;28;20505;-84
2022/10/29 03:13:13;;;;;;;13.95;6.00;;;12.90;99.90;;;;;;4985133;28;20496;-84
2022/10/29 03:15:43;;;;;;;22.75;6.72;;;12.90;99.90;;;;;;4985401;28;20042;-85
2022/10/29 03:18:09;;;;;;;15.48;5.93;;;13.00;99.90;;;;;;4991323;28;20042;-84
2022/10/29 03:20:34;;;;;;;20.05;6.28;;;13.00;99.90;;;;;;4977710;28;20034;-84
2022/10/29 03:23:00;;;;;;;14.60;5.72;;;12.90;99.90;;;;;;4959324;28;20045;-84
2022/10/29 03:25:26;;;;;;;29.92;6.65;;;13.00;99.90;;;;;;4993920;28;20137;-84
2022/10/29 03:27:51;;;;;;;27.30;6.65;;;13.00;99.90;;;;;;4985893;28;20038;-84
2022/10/29 03:30:17;;;;;;;34.50;6.68;;;13.00;99.90;;;;;;4982205;28;20500;-84
2022/10/29 03:32:45;;;;;;;29.58;6.50;;;13.00;99.90;;;;;;4985061;28;20561;-84
2022/10/29 03:35:12;;;;;;;62.88;7.82;;;12.90;99.90;;;;;;5004501;28;20061;-85
2022/10/29 03:37:39;;;;;;;33.80;6.82;;;12.90;99.90;;;;;;4989217;28;20069;-85
2022/10/29 03:40:05;;;;;;;37.72;6.60;;;12.90;99.90;;;;;;4985091;28;20419;-84
2022/10/29 03:42:31;;;;;;;18.80;6.15;;;12.90;99.90;;;;;;4989249;28;20284;-85
2022/10/29 03:44:58;;;;;;;20.95;6.28;;;12.90;99.90;;;;;;4990114;28;20276;-84
2022/10/29 03:47:23;;;;;;;18.38;6.18;;;12.90;99.90;;;;;;5005958;28;20042;-85
2022/10/29 03:49:49;;;;;;;25.58;5.75;;;12.90;99.90;;;;;;4973262;28;20400;-84
2022/10/29 03:52:15;;;;;;;33.38;6.20;;;12.80;99.90;;;;;;5004195;28;20049;-85
2022/10/29 03:54:40;;;;;;;19.60;6.13;;;12.80;99.90;;;;;;4956770;28;20398;-84
2022/10/29 03:57:06;;;;;;;33.00;6.53;;;13.00;99.90;;;;;;5006133;28;20076;-85
2022/10/29 03:59:32;;;;;;;123.38;10.02;;;13.80;99.90;;;;;;4987860;28;20045;-85
2022/10/29 04:01:57;;;;;;;57.50;7.25;;;12.90;99.90;;;;;;4989816;28;20037;-85
2022/10/29 04:04:23;;;;;;;27.85;5.60;;;12.80;99.90;;;;;;4988718;28;20125;-84
2022/10/29 04:06:49;;;;;;;14.80;5.50;;;12.80;99.90;;;;;;4963600;28;20034;-85
2022/10/29 04:09:14;;;;;;;27.88;6.30;;;13.30;99.90;;;;;;4970183;28;20034;-86
2022/10/29 04:11:40;;;;;;;22.05;6.03;;;12.80;99.90;;;;;;4987370;28;20125;-84
2022/10/29 04:14:06;;;;;;;27.95;6.35;;;12.80;99.90;;;;;;4974828;28;20506;-84
2022/10/29 04:16:32;;;;;;;25.95;6.63;;;12.80;99.90;;;;;;4969082;28;20116;-85
2022/10/29 04:18:58;;;;;;;27.63;6.43;;;12.80;99.90;;;;;;4972453;28;20053;-85
2022/10/29 04:21:24;;;;;;;25.85;6.30;;;12.80;99.90;;;;;;4986049;28;20053;-85
2022/10/29 04:23:50;;;;;;;14.02;5.47;;;12.80;99.90;;;;;;4990692;28;20060;-84
2022/10/29 04:26:16;;;;;;;17.75;6.05;;;12.80;99.90;;;;;;4955006;28;20042;-85
2022/10/29 04:28:42;;;;;;;37.30;6.70;;;12.80;99.90;;;;;;4974517;28;20042;-85
2022/10/29 04:31:10;;;;;;;19.42;5.95;;;12.80;99.90;;;;;;4989408;28;20049;-85
2022/10/29 04:33:36;;;;;;;32.72;6.38;;;12.70;99.90;;;;;;4987880;28;20038;-85
2022/10/29 04:36:02;;;;;;;22.30;5.47;;;12.80;99.90;;;;;;4989496;28;20060;-85
2022/10/29 04:38:28;;;;;;;55.50;7.50;;;12.80;99.90;;;;;;4976644;28;20536;-84
2022/10/29 04:40:58;;;;;;;31.60;6.10;;;12.90;99.90;;;;;;4987104;28;20111;-84
2022/10/29 04:43:24;;;;;;;28.73;6.65;;;12.80;99.90;;;;;;4989299;28;20509;-85
2022/10/29 04:45:51;;;;;;;30.33;7.13;;;12.70;99.90;;;;;;5004224;28;20029;-85
2022/10/29 04:48:17;;;;;;;25.90;6.82;;;12.80;99.90;;;;;;4973309;28;20046;-84
2022/10/29 04:50:42;;;;;;;32.38;6.53;;;12.70;99.90;;;;;;4987620;28;20033;-84
2022/10/29 04:53:08;;;;;;;18.58;6.50;;;12.70;99.90;;;;;;4987081;28;20042;-84
2022/10/29 04:55:38;;;;;;;15.68;6.15;;;12.70;99.90;;;;;;4990866;28;20568;-84
2022/10/29 04:58:05;;;;;;;36.10;7.13;;;12.70;99.90;;;;;;4981948;28;20089;-84
2022/10/29 05:00:31;;;;;;;29.98;6.75;;;12.70;99.90;;;;;;4993559;28;20042;-84
2022/10/29 05:02:57;;;;;;;33.03;6.97;;;12.70;99.90;;;;;;4991985;28;20499;-84
2022/10/29 05:05:23;;;;;;;27.02;6.70;;;12.70;99.90;;;;;;5005034;28;20045;-84
2022/10/29 05:07:55;;;;;;;29.88;6.25;;;12.70;99.90;;;;;;4990475;28;20131;-84
2022/10/29 05:10:21;;;;;;;26.30;6.95;;;12.70;99.90;;;;;;4983443;28;20156;-85
2022/10/29 05:12:47;;;;;;;49.08;7.30;;;12.70;99.90;;;;;;4971841;28;20124;-84
2022/10/29 05:15:12;;;;;;;22.35;7.28;;;12.70;99.90;;;;;;4982182;28;20818;-84
2022/10/29 05:17:38;;;;;;;25.40;6.72;;;12.70;99.90;;;;;;4976131;28;20601;-84
2022/10/29 05:20:04;;;;;;;17.55;6.20;;;12.70;99.90;;;;;;4978421;28;20038;-84
2022/10/29 05:22:30;;;;;;;24.30;7.03;;;12.80;99.90;;;;;;4980415;28;20046;-84
2022/10/29 05:24:56;;;;;;;28.25;6.80;;;12.80;99.90;;;;;;4975420;28;20576;-84
2022/10/29 05:27:21;;;;;;;12.93;5.82;;;12.80;99.90;;;;;;4977263;28;20064;-85
2022/10/29 05:29:47;;;;;;;39.15;7.95;;;12.80;99.90;;;;;;4974826;28;20034;-84
2022/10/29 05:32:12;;;;;;;14.85;6.40;;;12.80;99.90;;;;;;4991676;28;20403;-84
2022/10/29 05:34:38;;;;;;;19.60;6.40;;;12.80;99.90;;;;;;4992413;28;20045;-85
2022/10/29 05:37:04;;;;;;;18.92;6.82;;;12.80;99.90;;;;;;4969353;28;20508;-85
2022/10/29 05:39:29;;;;;;;21.17;6.88;;;12.80;99.90;;;;;;4968031;28;20054;-85
2022/10/29 05:41:55;;;;;;;17.70;6.90;;;12.80;99.90;;;;;;4949501;28;20042;-84
2022/10/29 05:44:21;;;;;;;21.52;6.93;;;12.90;99.90;;;;;;4988908;28;20076;-84
2022/10/29 05:46:48;;;;;;;17.77;6.70;;;12.80;99.90;;;;;;4974279;28;20126;-84
2022/10/29 05:49:14;;;;;;;30.52;8.38;;;12.80;99.90;;;;;;4989919;28;20039;-85
2022/10/29 05:51:39;;;;;;;20.98;6.95;;;12.80;99.90;;;;;;4961483;28;20045;-84
2022/10/29 05:54:05;;;;;;;20.98;7.43;;;12.80;99.90;;;;;;4988902;28;20070;-85
2022/10/29 05:56:31;;;;;;;20.88;7.90;;;12.80;99.90;;;;;;4975444;28;20038;-85
2022/10/29 05:58:56;;;;;;;16.42;6.70;;;12.80;99.90;;;;;;5005872;28;20042;-84
2022/10/29 06:01:22;;;;;;;16.98;6.63;;;12.80;99.90;;;;;;4951809;28;20408;-84
2022/10/29 06:03:48;;;;;;;20.13;6.82;;;12.40;99.90;;;;;;4973853;28;20046;-84
2022/10/29 06:06:13;;;;;;;16.10;6.75;;;12.80;99.90;;;;;;4990908;28;20044;-84
2022/10/29 06:08:39;;;;;;;34.60;8.10;;;12.80;99.90;;;;;;4990749;28;20508;-85
2022/10/29 06:11:05;;;;;;;27.45;7.90;;;12.80;99.90;;;;;;4974277;28;20064;-85
2022/10/29 06:13:31;;;;;;;18.83;6.55;;;12.80;99.90;;;;;;4990628;28;20487;-85
2022/10/29 06:15:58;;;;;;;21.60;6.95;;;12.90;99.90;;;;;;4974850;28;20083;-84
2022/10/29 06:18:26;;;;;;;27.77;6.85;;;12.80;99.90;;;;;;5008836;28;20048;-85
2022/10/29 06:20:52;;;;;;;20.75;6.10;;;12.80;99.90;;;;;;4989951;28;20083;-84
2022/10/29 06:23:18;;;;;;;16.48;5.32;;;12.80;99.90;;;;;;4989388;28;20557;-84
2022/10/29 06:25:44;;;;;;;12.77;4.93;;;12.80;99.90;;;;;;4973584;28;20046;-84
2022/10/29 06:28:13;;;;;;;18.15;5.30;;;12.90;99.90;;;;;;4971198;28;20054;-85
2022/10/29 06:30:40;;;;;;;13.77;5.55;;;12.80;99.90;;;;;;4975148;28;20449;-84
2022/10/29 06:33:06;;;;;;;65.80;8.10;;;12.80;99.90;;;;;;4990169;28;20034;-84
2022/10/29 06:35:33;;;;;;;39.70;6.05;;;12.90;99.90;;;;;;4993140;28;20122;-84
2022/10/29 06:37:59;;;;;;;13.15;4.78;;;12.90;99.90;;;;;;4969654;28;20072;-84
2022/10/29 06:40:25;;;;;;;29.45;5.50;;;12.90;99.90;;;;;;4973808;28;20050;-84
2022/10/29 06:43:01;;;;;;;14.93;5.20;;;12.90;99.90;;;;;;4975637;28;20272;-84
2022/10/29 06:45:27;;;;;;;40.47;6.15;;;12.90;99.90;;;;;;5002082;28;20037;-84
2022/10/29 06:47:53;;;;;;;23.38;5.90;;;12.90;99.90;;;;;;4985285;28;20368;-84
2022/10/29 06:50:19;;;;;;;26.38;5.45;;;12.90;99.90;;;;;;4970744;28;20356;-84
2022/10/29 06:53:02;;;;;;;18.00;5.18;;;12.90;99.90;;;;;;4986058;28;20093;-84
2022/10/29 06:55:28;;;;;;;18.25;5.50;;;13.00;99.90;;;;;;5005026;28;20096;-84
2022/10/29 06:58:01;;;;;;;24.65;6.15;;;12.90;99.90;;;;;;4990390;28;20061;-84
2022/10/29 07:00:27;;;;;;;;;;;13.00;99.90;;;;;;5006870;28;20030;-84
2022/10/29 07:02:53;;;;;;;22.60;5.43;;;13.00;99.90;;;;;;4990825;28;19975;-84
2022/10/29 07:05:20;;;;;;;23.83;6.32;;;13.00;99.90;;;;;;5018152;28;20068;-84
2022/10/29 07:07:46;;;;;;;13.55;5.15;;;13.00;99.90;;;;;;4969361;28;20045;-84
2022/10/29 07:10:14;;;;;;;26.90;6.30;;;13.00;99.90;;;;;;4974216;28;20081;-84
2022/10/29 07:12:43;;;;;;;18.75;6.10;;;13.10;99.90;;;;;;4973239;28;20038;-84
2022/10/29 07:15:10;;;;;;;22.35;6.90;;;13.10;99.90;;;;;;4992481;28;20483;-84
2022/10/29 07:17:35;;;;;;;21.67;6.70;;;13.10;99.90;;;;;;5004702;28;20511;-84
2022/10/29 07:20:02;;;;;;;17.25;5.88;;;13.10;99.90;;;;;;4966346;28;20052;-84
2022/10/29 07:22:28;;;;;;;39.72;6.82;;;13.20;99.90;;;;;;4986179;28;20095;-84
2022/10/29 07:24:53;;;;;;;21.88;6.95;;;13.20;99.90;;;;;;4972963;28;20046;-84
2022/10/29 07:27:19;;;;;;;41.42;8.55;;;13.30;99.90;;;;;;4979839;28;20076;-84
2022/10/29 07:29:45;;;;;;;32.13;7.90;;;13.30;99.90;;;;;;4973970;28;20060;-84
2022/10/29 07:32:10;;;;;;;46.53;8.93;;;13.30;99.90;;;;;;4974751;28;20030;-85
2022/10/29 07:34:36;;;;;;;20.48;7.40;;;13.30;99.90;;;;;;4973889;28;20033;-84
2022/10/29 07:37:02;;;;;;;29.83;8.48;;;13.30;99.90;;;;;;5012764;28;20030;-85
2022/10/29 07:39:27;;;;;;;25.15;8.15;;;13.40;99.90;;;;;;4980633;28;20045;-85
2022/10/29 07:41:53;;;;;;;33.55;8.45;;;13.40;99.90;;;;;;4973086;28;20041;-84
2022/10/29 07:44:19;;;;;;;35.60;9.68;;;13.40;99.90;;;;;;4971217;28;20273;-85
2022/10/29 07:46:44;;;;;;;26.77;9.00;;;13.40;99.90;;;;;;4986389;28;20045;-85
2022/10/29 07:49:10;;;;;;;26.75;9.05;;;13.40;99.90;;;;;;4974138;28;20095;-85
2022/10/29 07:51:36;;;;;;;40.55;10.32;;;13.50;99.90;;;;;;4988208;28;20053;-84
2022/10/29 07:54:02;;;;;;;32.22;10.70;;;13.50;99.90;;;;;;4983406;28;20127;-85
2022/10/29 07:56:27;;;;;;;66.53;14.02;;;13.50;99.90;;;;;;4983484;28;20053;-85
2022/10/29 07:58:53;;;;;;;32.60;11.45;;;13.60;99.90;;;;;;4958937;28;20034;-85
2022/10/29 08:01:19;;;;;;;53.33;12.18;;;13.60;99.90;;;;;;4973182;28;20495;-85
2022/10/29 08:03:44;;;;;;;34.75;10.10;;;13.60;99.90;;;;;;4985610;28;20030;-84
2022/10/29 08:06:10;;;;;;;59.28;11.38;;;13.70;99.90;;;;;;4971869;28;20034;-85
2022/10/29 08:08:36;;;;;;;27.05;9.73;;;13.70;99.90;;;;;;4976405;28;20116;-84
2022/10/29 08:11:04;;;;;;;31.42;9.77;;;13.70;99.90;;;;;;5008970;28;20104;-84
2022/10/29 08:13:30;;;;;;;24.88;9.40;;;13.70;99.90;;;;;;4969018;28;20038;-84
2022/10/29 08:15:56;;;;;;;47.53;10.27;;;13.70;99.90;;;;;;4989144;28;20038;-84
2022/10/29 08:18:22;;;;;;;42.17;11.10;;;13.70;99.90;;;;;;4992605;28;20045;-84
2022/10/29 08:20:48;;;;;;;36.97;10.88;;;13.80;99.90;;;;;;4992790;28;20045;-84
2022/10/29 08:23:14;;;;;;;27.25;9.77;;;13.80;99.90;;;;;;4975568;28;20034;-84
2022/10/29 08:25:41;;;;;;;37.55;10.90;;;13.80;99.90;;;;;;5007108;28;20125;-84
2022/10/29 08:28:12;;;;;;;27.98;10.05;;;13.80;99.90;;;;;;4992048;28;20042;-85
2022/10/29 08:30:38;;;;;;;34.72;11.48;;;13.90;99.90;;;;;;5007495;28;20037;-84
2022/10/29 08:33:04;;;;;;;33.08;11.43;;;13.90;99.90;;;;;;4990258;28;20041;-84
2022/10/29 08:35:31;;;;;;;45.58;12.95;;;13.90;99.90;;;;;;4991325;28;20056;-84
2022/10/29 08:37:57;;;;;;;51.50;13.30;;;14.00;99.90;;;;;;4992345;28;20050;-84
2022/10/29 08:40:29;;;;;;;37.35;13.27;;;14.00;99.90;;;;;;4989073;28;20518;-84
2022/10/29 08:43:13;;;;;;;37.80;13.15;;;14.00;99.90;;;;;;5005431;28;20046;-84
2022/10/29 08:45:46;;;;;;;43.33;13.65;;;14.10;99.90;;;;;;4989621;28;20111;-84
2022/10/29 08:48:34;;;;;;;43.83;14.90;;;14.10;99.90;;;;;;5010189;28;20383;-84
2022/10/29 08:51:12;;;;;;;40.80;15.10;;;14.20;99.90;;;;;;4992351;28;20410;-84
2022/10/29 08:53:45;;;;;;;38.60;15.10;;;14.20;99.90;;;;;;4992275;28;20048;-85
2022/10/29 08:56:14;;;;;;;;;;;14.20;99.90;;;;;;4988929;28;20044;-84
2022/10/29 08:58:56;;;;;;;42.90;16.25;;;14.20;99.90;;;;;;5007523;28;19922;-84
2022/10/29 09:01:22;;;;;;;36.70;16.77;;;14.20;99.90;;;;;;4991758;28;20679;-84
2022/10/29 09:03:50;;;;;;;43.60;18.38;;;14.20;99.90;;;;;;4972678;28;20034;-84
2022/10/29 09:06:15;;;;;;;38.45;17.15;;;14.20;99.90;;;;;;4974433;28;20048;-84
2022/10/29 09:09:07;;;;;;;36.47;17.27;;;14.30;99.90;;;;;;4991153;28;20415;-84
2022/10/29 09:11:42;;;;;;;42.40;17.75;;;14.20;99.90;;;;;;4990564;28;20038;-85
2022/10/29 09:14:45;;;;;;;38.92;17.35;;;14.20;99.90;;;;;;4992049;28;20402;-85
2022/10/29 09:18:02;;;;;;;41.78;18.23;;;14.20;99.90;;;;;;4989952;28;20526;-85
2022/10/29 09:21:01;;;;;;;43.28;18.48;;;14.20;99.90;;;;;;4998069;28;20075;-85
2022/10/29 09:23:54;;;;;;;42.28;19.35;;;14.20;99.90;;;;;;5027792;28;20041;-85
2022/10/29 09:26:31;;;;;;;38.38;17.95;;;14.20;99.90;;;;;;4989012;28;20103;-84
2022/10/29 09:29:33;;;;;;;45.25;19.30;;;14.30;99.90;;;;;;5004345;28;20557;-84
2022/10/29 09:32:07;;;;;;;41.95;19.02;;;14.30;99.90;;;;;;5000837;28;20460;-85
2022/10/29 09:34:46;;;;;;;38.35;18.23;;;14.30;99.90;;;;;;4995823;28;20092;-85
2022/10/29 09:38:00;;;;;;;40.22;18.23;;;14.40;99.90;;;;;;5005834;28;20056;-84
2022/10/29 09:40:37;;;;;;;41.70;18.73;;;14.40;99.90;;;;;;4975463;28;20305;-84
2022/10/29 09:43:27;;;;;;;38.03;19.08;;;14.50;99.90;;;;;;4991523;28;20423;-84
2022/10/29 09:46:12;;;;;;;37.50;19.17;;;14.60;99.90;;;;;;4992633;28;20038;-84
2022/10/29 09:48:41;;;;;;;38.17;18.30;;;14.70;99.90;;;;;;4995047;28;20052;-84
2022/10/29 09:51:38;;;;;;;40.45;19.45;;;14.70;99.90;;;;;;5006484;28;20042;-84
2022/10/29 09:54:04;;;;;;;34.08;17.73;;;14.70;99.90;;;;;;5007360;28;20037;-84
2022/10/29 09:56:30;;;;;;;40.30;19.35;;;14.70;99.90;;;;;;4981786;28;20413;-84
2022/10/29 09:59:19;;;;;;;36.80;19.58;;;14.70;99.90;;;;;;4974092;28;20038;-84
2022/10/29 10:01:46;;;;;;;38.13;19.98;;;14.80;99.90;;;;;;5003288;28;20045;-84
2022/10/29 10:04:39;;;;;;;39.65;20.00;;;14.80;99.90;;;;;;4998184;28;20038;-84
2022/10/29 10:07:15;;;;;;;40.30;20.42;;;14.80;99.90;;;;;;5014097;28;20049;-84
2022/10/29 10:10:02;;;;;;;42.33;19.70;;;14.80;99.90;;;;;;5013784;28;20406;-84
2022/10/29 10:12:36;;;;;;;37.30;20.30;;;14.90;99.90;;;;;;5015440;28;20044;-84
2022/10/29 10:15:34;;;;;;;34.92;19.85;;;14.90;99.90;;;;;;5014344;28;20490;-84
2022/10/29 10:18:02;;;;;;;33.28;18.73;;;15.00;99.90;;;;;;5014750;28;20041;-84
2022/10/29 10:20:36;;;;;;;36.08;18.20;;;15.10;99.90;;;;;;5014137;28;20051;-85
2022/10/29 10:23:23;;;;;;;36.60;18.35;;;15.20;99.90;;;;;;5006555;28;20045;-84
2022/10/29 10:25:50;;;;;;;37.35;18.73;;;15.20;99.90;;;;;;5031027;28;20045;-85
2022/10/29 10:28:18;;;;;;;38.20;17.65;;;15.30;99.90;;;;;;5013720;28;20045;-85
2022/10/29 10:31:05;;;;;;;35.40;17.63;;;15.40;99.90;;;;;;5008399;28;20095;-85
2022/10/29 10:33:32;;;;;;;34.83;16.73;;;15.50;99.90;;;;;;4999959;28;20054;-84
2022/10/29 10:36:04;;;;;;;27.45;15.82;;;15.60;99.90;;;;;;5020917;28;20033;-85
2022/10/29 10:38:45;;;;;;;32.53;17.05;;;15.70;99.90;;;;;;5009073;28;20133;-84
2022/10/29 10:41:13;;;;;;;29.10;16.50;;;15.80;99.90;;;;;;4991434;28;20061;-84
2022/10/29 10:43:45;;;;;;;33.70;16.95;;;15.90;99.90;;;;;;4992718;28;20038;-84
2022/10/29 10:46:26;;;;;;;30.92;17.02;;;16.00;99.90;;;;;;4994026;28;20042;-85
2022/10/29 10:49:28;;;;;;;30.38;15.85;;;16.10;99.90;;;;;;5010587;28;20515;-85
2022/10/29 10:51:55;;;;;;;33.78;14.65;;;16.20;99.90;;;;;;4992962;28;20120;-85
2022/10/29 10:54:30;;;;;;;27.05;15.05;;;16.20;99.90;;;;;;4993159;28;20046;-85
2022/10/29 10:57:20;;;;;;;27.50;13.68;;;16.20;99.90;;;;;;4992831;28;20619;-84
2022/10/29 10:59:58;;;;;;;26.83;14.35;;;16.30;99.90;;;;;;5008989;28;20046;-85
2022/10/29 11:02:45;;;;;;;26.58;13.95;;;16.40;99.90;;;;;;5009288;28;20172;-85
2022/10/29 11:05:18;;;;;;;29.92;13.60;;;16.40;99.90;;;;;;5005520;28;20073;-85
2022/10/29 11:08:21;;;;;;;32.72;14.50;;;16.40;99.90;;;;;;4989628;28;20100;-85
2022/10/29 11:11:02;;;;;;;30.90;14.00;;;16.50;99.90;;;;;;4992632;28;20034;-85
2022/10/29 11:13:31;;;;;;;22.92;12.75;;;16.50;99.90;;;;;;5015120;28;20446;-85
2022/10/29 11:16:06;;;;;;;26.95;12.75;;;16.60;99.90;;;;;;4976956;28;20506;-85
2022/10/29 11:18:38;;;;;;;24.20;12.30;;;16.60;99.90;;;;;;4980971;28;20499;-84
2022/10/29 11:21:36;;;;;;;24.38;12.00;;;16.60;99.90;;;;;;5006674;28;20057;-85
2022/10/29 11:24:16;;;;;;;24.92;12.57;;;16.70;99.90;;;;;;4973340;28;20674;-84
2022/10/29 11:27:13;;;;;;;26.08;12.52;;;16.80;99.90;;;;;;4990872;28;20119;-85
2022/10/29 11:29:51;;;;;;;22.70;11.07;;;16.90;99.90;;;;;;4984962;28;20050;-85
2022/10/29 11:32:32;;;;;;;24.08;11.50;;;17.00;99.90;;;;;;4994118;28;20041;-84
2022/10/29 11:35:21;;;;;;;23.05;10.18;;;17.00;99.90;;;;;;5007720;28;20077;-85
2022/10/29 11:38:00;;;;;;;20.58;9.77;;;17.10;99.90;;;;;;5006683;28;20441;-85
2022/10/29 11:40:48;;;;;;;22.67;10.15;;;17.20;99.90;;;;;;5003264;28;20037;-85
2022/10/29 11:43:17;;;;;;;24.50;9.60;;;17.20;99.90;;;;;;5002722;28;20038;-86
2022/10/29 11:45:51;;;;;;;22.05;10.48;;;17.40;99.90;;;;;;4986952;28;20491;-85
2022/10/29 11:48:32;;;;;;;25.05;10.52;;;17.50;99.90;;;;;;4990228;28;20044;-85
2022/10/29 11:51:13;;;;;;;22.05;8.90;;;17.60;99.90;;;;;;5004487;28;20069;-85
2022/10/29 11:54:18;;;;;;;22.13;9.15;;;17.70;99.90;;;;;;5008359;28;20065;-85
2022/10/29 11:56:57;;;;;;;18.48;9.02;;;17.70;99.90;;;;;;5012013;28;20220;-85
2022/10/29 11:59:50;;;;;;;19.15;9.27;;;17.70;99.90;;;;;;4990329;28;20122;-84
2022/10/29 12:02:34;;;;;;;23.38;9.82;;;17.80;99.90;;;;;;4991407;28;20064;-85
2022/10/29 12:05:13;;;;;;;21.10;9.68;;;17.90;99.90;;;;;;4989137;28;20240;-86
2022/10/29 12:07:50;;;;;;;19.75;9.30;;;17.90;99.90;;;;;;5005980;28;20042;-85
2022/10/29 12:10:25;;;;;;;19.63;10.13;;;18.00;99.90;;;;;;4983368;28;20046;-85
2022/10/29 12:12:57;;;;;;;21.88;9.60;;;18.00;99.90;;;;;;5007683;28;20109;-85
2022/10/29 12:15:37;;;;;;;20.90;10.30;;;18.00;99.90;;;;;;4991846;28;20042;-85
2022/10/29 12:18:26;;;;;;;21.50;10.15;;;18.00;99.90;;;;;;5007997;28;20045;-85
2022/10/29 12:21:26;;;;;;;23.50;10.63;;;17.90;99.90;;;;;;4990722;28;20042;-85
2022/10/29 12:23:56;;;;;;;24.05;10.35;;;17.90;99.90;;;;;;4986985;28;20049;-84
2022/10/29 12:26:35;;;;;;;23.90;11.57;;;17.90;99.90;;;;;;4987774;28;20068;-85
2022/10/29 12:29:23;;;;;;;25.63;12.50;;;17.80;99.90;;;;;;4992346;28;20180;-85
2022/10/29 12:32:07;;;;;;;22.45;11.82;;;17.80;99.90;;;;;;5006917;28;20137;-85
2022/10/29 12:34:47;;;;;;;24.70;10.48;;;17.80;99.90;;;;;;4982859;28;20049;-85
2022/10/29 12:37:23;;;;;;;25.00;11.45;;;18.00;99.90;;;;;;5021584;28;20041;-85
2022/10/29 12:39:59;;;;;;;21.92;10.60;;;18.10;99.90;;;;;;5011630;28;20129;-85
2022/10/29 12:42:26;;;;;;;28.58;11.23;;;18.10;99.90;;;;;;4995481;28;20108;-84
2022/10/29 12:45:04;;;;;;;24.52;11.23;;;18.10;99.90;;;;;;4986548;28;20407;-85
2022/10/29 12:47:48;;;;;;;21.38;10.05;;;18.10;99.90;;;;;;4989200;28;20045;-85
2022/10/29 12:50:31;;;;;;;20.65;9.43;;;18.10;99.90;;;;;;4990578;28;20044;-85
2022/10/29 12:53:05;;;;;;;24.40;11.02;;;18.20;99.90;;;;;;4994778;28;20049;-85
2022/10/29 12:55:33;;;;;;;24.65;11.07;;;18.20;99.90;;;;;;4986039;28;20042;-85
2022/10/29 12:58:19;;;;;;;20.67;10.95;;;18.20;99.90;;;;;;4971382;28;20042;-85